createdAt,value
2022-07-30T00:01:22.799Z,7.00
2022-07-30T00:04:26.147Z,4.45
2022-07-30T00:07:28.848Z,7.35
2022-07-30T00:10:31.753Z,5.37
2022-07-30T00:13:34.245Z,5.65
2022-07-30T00:16:37.475Z,4.80
2022-07-30T00:19:40.130Z,5.60
2022-07-30T00:22:46.946Z,5.90
2022-07-30T00:25:49.461Z,6.10
2022-07-30T00:28:52.413Z,5.70
2022-07-30T00:31:54.952Z,5.97
2022-07-30T00:34:58.946Z,4.70
2022-07-30T00:38:01.630Z,4.82
2022-07-30T00:41:04.406Z,5.30
2022-07-30T00:44:06.886Z,4.82
2022-07-30T00:47:09.974Z,4.97
2022-07-30T00:50:13.845Z,4.62
2022-07-30T00:53:16.933Z,3.58
2022-07-30T00:56:19.399Z,6.05
2022-07-30T00:59:22.181Z,6.70
2022-07-30T01:02:25.200Z,6.15
2022-07-30T01:05:28.142Z,6.07
2022-07-30T01:08:30.712Z,4.00
2022-07-30T01:11:37.459Z,5.57
2022-07-30T01:14:40.202Z,5.30
2022-07-30T01:17:43.604Z,3.97
2022-07-30T01:21:00.787Z,5.60
2022-07-30T01:24:38.522Z,4.20
2022-07-30T01:27:48.762Z,6.43
2022-07-30T01:30:54.054Z,5.37
2022-07-30T01:33:58.597Z,4.03
2022-07-30T01:37:05.368Z,5.15
2022-07-30T01:40:09.379Z,4.47
2022-07-30T01:43:13.108Z,5.00
2022-07-30T01:46:17.683Z,5.22
2022-07-30T01:49:23.053Z,4.85
2022-07-30T01:52:30.986Z,4.65
2022-07-30T01:55:40.148Z,4.07
2022-07-30T01:58:44.101Z,5.07
2022-07-30T02:01:48.555Z,3.85
2022-07-30T02:04:52.158Z,4.40
2022-07-30T02:08:06.288Z,3.33
2022-07-30T02:11:15.708Z,4.50
2022-07-30T02:14:23.805Z,4.35
2022-07-30T02:17:39.627Z,3.92
2022-07-30T02:20:51.198Z,6.80
2022-07-30T02:23:56.495Z,4.37
2022-07-30T02:27:08.614Z,6.43
2022-07-30T02:30:12.252Z,5.25
2022-07-30T02:33:17.310Z,4.05
2022-07-30T02:36:20.799Z,4.10
2022-07-30T02:39:23.991Z,3.85
2022-07-30T02:42:27.943Z,4.78
2022-07-30T02:45:31.048Z,4.68
2022-07-30T02:48:38.380Z,4.53
2022-07-30T02:51:42.600Z,6.32
2022-07-30T02:54:47.937Z,7.40
2022-07-30T02:57:53.643Z,7.72
2022-07-30T03:00:57.647Z,4.87
2022-07-30T03:04:01.842Z,6.43
2022-07-30T03:07:08.401Z,8.68
2022-07-30T03:10:13.177Z,5.37
2022-07-30T03:13:18.072Z,6.03
2022-07-30T03:16:23.306Z,5.00
2022-07-30T03:19:31.076Z,4.40
2022-07-30T03:25:45.615Z,5.65
2022-07-30T03:28:49.668Z,7.55
2022-07-30T03:31:53.309Z,5.22
2022-07-30T03:34:57.861Z,5.75
2022-07-30T03:38:14.838Z,7.30
2022-07-30T03:41:18.244Z,5.72
2022-07-30T03:44:22.276Z,6.70
2022-07-30T03:47:25.998Z,4.47
2022-07-30T03:50:29.394Z,5.05
2022-07-30T03:53:32.973Z,5.78
2022-07-30T03:56:38.562Z,5.75
2022-07-30T03:59:41.801Z,4.93
2022-07-30T04:02:46.075Z,5.75
2022-07-30T04:05:49.999Z,5.20
2022-07-30T04:08:52.576Z,7.05
2022-07-30T04:11:55.614Z,5.37
2022-07-30T04:14:58.896Z,5.03
2022-07-30T04:18:05.352Z,6.22
2022-07-30T04:21:16.506Z,5.37
2022-07-30T04:24:21.147Z,3.50
2022-07-30T04:27:25.427Z,7.82
2022-07-30T04:30:28.394Z,7.18
2022-07-30T04:33:32.030Z,4.50
2022-07-30T04:36:36.886Z,4.95
2022-07-30T04:39:39.451Z,5.80
2022-07-30T04:42:42.334Z,6.32
2022-07-30T04:45:45.410Z,4.82
2022-07-30T04:48:48.382Z,7.22
2022-07-30T04:51:52.090Z,3.85
2022-07-30T04:54:59.565Z,4.43
2022-07-30T04:58:03.403Z,4.90
2022-07-30T05:01:06.862Z,5.37
2022-07-30T05:04:11.363Z,4.57
2022-07-30T05:07:14.897Z,5.18
2022-07-30T05:10:19.158Z,8.43
2022-07-30T05:13:22.391Z,4.07
2022-07-30T05:16:30.404Z,11.82
2022-07-30T05:19:34.189Z,5.80
2022-07-30T05:22:36.965Z,5.85
2022-07-30T05:25:46.111Z,6.07
2022-07-30T05:28:53.898Z,6.15
2022-07-30T05:32:03.347Z,5.12
2022-07-30T05:35:07.112Z,4.97
2022-07-30T05:38:10.125Z,6.65
2022-07-30T05:41:25.167Z,4.53
2022-07-30T05:44:36.138Z,5.70
2022-07-30T05:47:38.889Z,5.07
2022-07-30T05:50:41.696Z,8.65
2022-07-30T05:53:44.232Z,4.40
2022-07-30T05:56:49.591Z,5.65
2022-07-30T05:59:53.260Z,5.18
2022-07-30T06:02:56.120Z,4.68
2022-07-30T06:06:05.435Z,3.55
2022-07-30T06:09:08.255Z,4.40
2022-07-30T06:12:11.182Z,4.25
2022-07-30T06:15:14.994Z,3.72
2022-07-30T06:18:18.161Z,5.30
2022-07-30T06:21:21.951Z,5.75
2022-07-30T06:24:26.303Z,6.25
2022-07-30T06:27:36.646Z,6.57
2022-07-30T06:30:45.881Z,4.18
2022-07-30T06:33:48.749Z,4.95
2022-07-30T06:36:51.674Z,3.90
2022-07-30T06:39:57.467Z,4.37
2022-07-30T06:43:04.168Z,5.62
2022-07-30T06:46:09.771Z,4.40
2022-07-30T06:49:13.398Z,4.03
2022-07-30T06:52:18.777Z,6.00
2022-07-30T06:55:22.500Z,5.03
2022-07-30T06:58:25.879Z,3.60
2022-07-30T07:01:30.034Z,4.85
2022-07-30T07:04:33.273Z,3.92
2022-07-30T07:07:42.329Z,6.50
2022-07-30T07:10:49.412Z,3.33
2022-07-30T07:13:54.200Z,4.32
2022-07-30T07:16:57.439Z,3.37
2022-07-30T07:20:03.020Z,3.65
2022-07-30T07:23:09.188Z,2.97
2022-07-30T07:26:16.282Z,3.45
2022-07-30T07:29:19.025Z,3.45
2022-07-30T07:32:22.543Z,2.72
2022-07-30T07:35:25.234Z,3.60
2022-07-30T07:38:28.547Z,3.92
2022-07-30T07:41:31.436Z,5.72
2022-07-30T07:44:52.561Z,4.43
2022-07-30T07:47:55.401Z,4.53
2022-07-30T07:51:00.608Z,6.03
2022-07-30T07:54:20.311Z,2.62
2022-07-30T07:57:24.279Z,3.72
2022-07-30T08:00:29.442Z,6.25
2022-07-30T08:03:32.411Z,6.12
2022-07-30T08:06:41.743Z,2.80
2022-07-30T08:09:49.694Z,4.40
2022-07-30T08:12:53.516Z,5.15
2022-07-30T08:15:59.833Z,4.93
2022-07-30T08:19:04.558Z,2.75
2022-07-30T08:22:07.772Z,4.97
2022-07-30T08:25:11.110Z,3.95
2022-07-30T08:28:35.102Z,3.35
2022-07-30T08:31:36.950Z,4.95
2022-07-30T08:34:39.755Z,3.40
2022-07-30T08:37:42.560Z,4.12
2022-07-30T08:40:46.805Z,6.00
2022-07-30T08:43:51.773Z,6.18
2022-07-30T08:46:57.262Z,3.75
2022-07-30T08:50:04.583Z,3.47
2022-07-30T08:53:08.712Z,4.87
2022-07-30T08:56:12.339Z,3.60
2022-07-30T08:59:17.130Z,4.82
2022-07-30T09:02:27.826Z,5.40
2022-07-30T09:05:33.247Z,4.95
2022-07-30T09:08:36.894Z,4.87
2022-07-30T09:11:39.752Z,5.65
2022-07-30T09:15:11.369Z,4.03
2022-07-30T09:18:14.529Z,3.97
2022-07-30T09:21:26.395Z,6.03
2022-07-30T09:24:42.085Z,4.05
2022-07-30T09:27:52.461Z,5.90
2022-07-30T09:31:05.650Z,5.37
2022-07-30T09:34:47.309Z,5.12
2022-07-30T09:38:04.556Z,3.83
2022-07-30T09:41:40.096Z,5.05
2022-07-30T09:44:43.837Z,4.30
2022-07-30T09:47:50.452Z,4.95
2022-07-30T09:50:55.354Z,4.15
2022-07-30T09:54:00.439Z,5.50
2022-07-30T09:57:26.688Z,5.53
2022-07-30T10:00:33.058Z,6.20
2022-07-30T10:03:42.380Z,7.87
2022-07-30T10:07:00.723Z,12.60
2022-07-30T10:10:08.153Z,16.15
2022-07-30T10:13:20.867Z,18.77
2022-07-30T10:16:29.480Z,13.80
2022-07-30T10:19:40.058Z,13.73
2022-07-30T10:22:50.597Z,13.60
2022-07-30T10:25:59.000Z,14.63
2022-07-30T10:29:06.977Z,17.00
2022-07-30T10:32:09.931Z,16.65
2022-07-30T10:35:14.110Z,17.12
2022-07-30T10:38:41.598Z,15.75
2022-07-30T10:42:06.310Z,20.58
2022-07-30T10:45:17.701Z,13.85
2022-07-30T10:48:21.432Z,15.90
2022-07-30T10:51:43.213Z,14.45
2022-07-30T10:54:53.514Z,15.18
2022-07-30T10:58:10.607Z,17.23
2022-07-30T11:01:18.520Z,13.30
2022-07-30T11:04:29.874Z,16.05
2022-07-30T11:07:35.635Z,13.25
2022-07-30T11:10:41.241Z,14.55
2022-07-30T11:13:56.301Z,14.60
2022-07-30T11:16:59.859Z,13.00
2022-07-30T11:20:03.385Z,12.73
2022-07-30T11:23:29.058Z,11.52
2022-07-30T11:26:46.670Z,8.82
2022-07-30T11:29:50.772Z,12.57
2022-07-30T11:33:14.282Z,9.90
2022-07-30T11:36:16.978Z,10.07
2022-07-30T11:39:20.221Z,7.90
2022-07-30T11:42:35.119Z,8.25
2022-07-30T11:45:38.158Z,8.93
2022-07-30T11:48:42.855Z,9.23
2022-07-30T11:51:47.808Z,6.70
2022-07-30T11:54:52.290Z,10.73
2022-07-30T11:57:55.700Z,5.85
2022-07-30T12:01:22.642Z,4.82
2022-07-30T12:04:25.572Z,3.72
2022-07-30T12:07:28.097Z,4.78
2022-07-30T12:10:31.881Z,3.90
2022-07-30T12:13:44.500Z,4.40
2022-07-30T12:16:51.484Z,3.62
2022-07-30T12:19:53.992Z,5.55
2022-07-30T12:22:57.767Z,4.72
2022-07-30T12:26:00.329Z,4.10
2022-07-30T12:29:06.699Z,3.33
2022-07-30T12:32:09.400Z,5.65
2022-07-30T12:35:12.824Z,3.40
2022-07-30T12:38:17.064Z,5.65
2022-07-30T12:41:20.596Z,5.12
2022-07-30T12:44:46.311Z,5.30
2022-07-30T12:47:50.197Z,2.45
2022-07-30T12:51:07.876Z,3.53
2022-07-30T12:54:17.241Z,1.80
2022-07-30T12:57:22.324Z,1.50
2022-07-30T13:00:28.926Z,3.12
2022-07-30T13:03:39.496Z,2.60
2022-07-30T13:06:43.531Z,1.65
2022-07-30T13:10:06.423Z,1.55
2022-07-30T13:13:10.377Z,1.25
2022-07-30T13:16:13.582Z,1.33
2022-07-30T13:19:16.532Z,1.00
2022-07-30T13:22:21.971Z,0.70
2022-07-30T13:25:24.968Z,0.70
2022-07-30T13:28:41.381Z,1.37
2022-07-30T13:31:44.202Z,0.90
2022-07-30T13:34:46.922Z,1.37
2022-07-30T13:37:49.726Z,3.28
2022-07-30T13:40:52.510Z,0.98
2022-07-30T13:43:55.545Z,0.98
2022-07-30T13:47:01.717Z,1.27
2022-07-30T13:50:05.664Z,1.52
2022-07-30T13:53:09.059Z,1.42
2022-07-30T13:56:12.863Z,0.80
2022-07-30T13:59:21.908Z,0.80
2022-07-30T14:02:24.673Z,4.32
2022-07-30T14:05:28.559Z,1.48
2022-07-30T14:08:31.501Z,1.65
2022-07-30T14:11:34.779Z,3.55
2022-07-30T14:14:37.332Z,2.03
2022-07-30T14:17:40.171Z,1.17
2022-07-30T14:20:45.643Z,3.47
2022-07-30T14:23:51.361Z,0.70
2022-07-30T14:26:58.015Z,0.90
2022-07-30T14:30:01.239Z,0.88
2022-07-30T14:33:04.710Z,0.77
2022-07-30T14:36:09.172Z,1.55
2022-07-30T14:39:12.022Z,0.80
2022-07-30T14:42:15.646Z,0.75
2022-07-30T14:45:18.233Z,1.10
2022-07-30T14:48:21.076Z,2.80
2022-07-30T14:51:26.676Z,1.25
2022-07-30T14:54:31.491Z,1.45
2022-07-30T14:57:34.263Z,1.25
2022-07-30T15:00:48.959Z,1.55
2022-07-30T15:03:51.956Z,1.60
2022-07-30T15:06:54.706Z,1.12
2022-07-30T15:09:57.234Z,1.98
2022-07-30T15:13:00.062Z,1.33
2022-07-30T15:16:02.532Z,1.40
2022-07-30T15:19:05.342Z,1.70
2022-07-30T15:22:08.078Z,2.35
2022-07-30T15:25:11.036Z,2.75
2022-07-30T15:28:15.267Z,1.10
2022-07-30T15:31:23.572Z,1.98
2022-07-30T15:34:27.496Z,1.12
2022-07-30T15:37:30.274Z,1.73
2022-07-30T15:40:32.854Z,1.67
2022-07-30T15:43:35.661Z,1.45
2022-07-30T15:46:38.513Z,1.20
2022-07-30T15:49:41.310Z,1.98
2022-07-30T15:52:46.706Z,0.80
2022-07-30T15:55:49.565Z,1.65
2022-07-30T15:58:52.556Z,2.05
2022-07-30T16:01:58.268Z,0.90
2022-07-30T16:05:01.282Z,1.08
2022-07-30T16:08:04.779Z,1.30
2022-07-30T16:11:07.597Z,1.05
2022-07-30T16:14:13.433Z,1.10
2022-07-30T16:17:16.903Z,1.25
2022-07-30T16:20:19.560Z,1.10
2022-07-30T16:23:24.100Z,1.48
2022-07-30T16:26:26.672Z,1.67
2022-07-30T16:29:29.548Z,2.37
2022-07-30T16:32:32.076Z,1.95
2022-07-30T16:35:35.228Z,1.40
2022-07-30T16:38:52.030Z,1.62
2022-07-30T16:41:54.833Z,1.10
2022-07-30T16:44:58.183Z,1.67
2022-07-30T16:48:01.023Z,1.27
2022-07-30T16:51:04.019Z,3.58
2022-07-30T16:54:07.727Z,1.15
2022-07-30T16:57:10.704Z,1.10
2022-07-30T17:00:14.787Z,2.00
2022-07-30T17:03:20.041Z,1.23
2022-07-30T17:06:23.286Z,1.27
2022-07-30T17:09:25.791Z,1.08
2022-07-30T17:12:29.480Z,1.67
2022-07-30T17:15:33.314Z,1.62
2022-07-30T17:18:36.640Z,1.40
2022-07-30T17:21:39.199Z,2.40
2022-07-30T17:24:42.169Z,2.15
2022-07-30T17:27:46.219Z,2.17
2022-07-30T17:30:49.146Z,1.33
2022-07-30T17:33:51.832Z,2.87
2022-07-30T17:36:55.140Z,1.17
2022-07-30T17:40:26.374Z,2.35
2022-07-30T17:43:20.605Z,2.42
2022-07-30T17:46:23.529Z,1.33
2022-07-30T17:49:26.365Z,1.98
2022-07-30T17:52:28.953Z,2.60
2022-07-30T17:55:35.022Z,1.77
2022-07-30T17:58:37.648Z,1.83
2022-07-30T18:01:40.483Z,2.33
2022-07-30T18:04:43.584Z,2.30
2022-07-30T18:07:46.242Z,1.83
2022-07-30T18:10:50.175Z,2.47
2022-07-30T18:13:52.800Z,1.92
2022-07-30T18:16:56.704Z,2.50
2022-07-30T18:19:59.285Z,2.08
2022-07-30T18:23:09.393Z,2.33
2022-07-30T18:26:13.109Z,2.53
2022-07-30T18:29:16.285Z,2.50
2022-07-30T18:32:18.834Z,1.60
2022-07-30T18:35:21.723Z,2.45
2022-07-30T18:38:24.316Z,2.30
2022-07-30T18:41:27.279Z,3.28
2022-07-30T18:44:29.835Z,4.00
2022-07-30T18:47:32.721Z,2.53
2022-07-30T18:50:35.580Z,1.60
2022-07-30T18:53:38.515Z,2.12
2022-07-30T18:56:41.140Z,1.90
2022-07-30T18:59:46.284Z,1.98
2022-07-30T19:02:48.860Z,1.95
2022-07-30T19:05:51.854Z,3.25
2022-07-30T19:08:54.404Z,2.42
2022-07-30T19:11:57.159Z,3.03
2022-07-30T19:14:59.832Z,2.55
2022-07-30T19:18:03.128Z,2.03
2022-07-30T19:21:05.843Z,3.28
2022-07-30T19:24:09.985Z,2.10
2022-07-30T19:27:14.416Z,2.30
2022-07-30T19:30:17.384Z,2.40
2022-07-30T19:33:20.029Z,2.55
2022-07-30T19:36:22.969Z,2.28
2022-07-30T19:39:25.576Z,3.40
2022-07-30T19:42:30.555Z,2.30
2022-07-30T19:45:47.212Z,3.15
2022-07-30T19:48:50.943Z,2.25
2022-07-30T19:52:09.793Z,2.75
2022-07-30T19:55:17.014Z,3.35
2022-07-30T19:58:33.186Z,2.85
2022-07-30T20:01:40.477Z,3.37
2022-07-30T20:04:44.489Z,3.35
2022-07-30T20:07:48.974Z,3.15
2022-07-30T20:10:52.424Z,2.53
2022-07-30T20:13:54.975Z,4.25
2022-07-30T20:16:58.177Z,3.15
2022-07-30T20:20:06.398Z,3.53
2022-07-30T20:23:10.686Z,4.05
2022-07-30T20:26:15.082Z,3.70
2022-07-30T20:29:19.429Z,3.22
2022-07-30T20:32:23.574Z,3.28
2022-07-30T20:35:27.742Z,2.90
2022-07-30T20:38:33.811Z,5.05
2022-07-30T20:41:39.677Z,3.20
2022-07-30T20:44:50.519Z,3.60
2022-07-30T20:47:56.534Z,4.40
2022-07-30T20:50:59.205Z,3.95
2022-07-30T20:54:02.489Z,5.05
2022-07-30T20:57:15.369Z,3.45
2022-07-30T21:00:20.219Z,3.72
2022-07-30T21:03:22.899Z,4.15
2022-07-30T21:09:49.770Z,4.62
2022-07-30T21:12:58.646Z,3.70
2022-07-30T21:16:15.638Z,4.50
2022-07-30T21:19:19.599Z,4.32
2022-07-30T21:22:25.240Z,4.40
2022-07-30T21:25:33.161Z,3.40
2022-07-30T21:28:36.277Z,3.80
2022-07-30T21:32:02.307Z,3.85
2022-07-30T21:35:08.119Z,6.32
2022-07-30T21:38:11.483Z,3.70
2022-07-30T21:41:15.145Z,4.07
2022-07-30T21:44:18.135Z,4.07
2022-07-30T21:47:20.744Z,5.22
2022-07-30T21:50:23.532Z,4.50
2022-07-30T21:53:44.639Z,3.87
2022-07-30T21:56:50.792Z,4.00
2022-07-30T21:59:55.229Z,3.90
2022-07-30T22:03:00.356Z,3.28
2022-07-30T22:06:04.101Z,3.62
2022-07-30T22:09:34.313Z,4.35
2022-07-30T22:12:39.986Z,4.75
2022-07-30T22:15:44.979Z,5.03
2022-07-30T22:18:50.614Z,3.40
2022-07-30T22:21:54.980Z,4.82
2022-07-30T22:25:00.098Z,5.57
2022-07-30T22:28:03.238Z,3.80
2022-07-30T22:31:11.214Z,6.03
2022-07-30T22:34:18.759Z,4.47
2022-07-30T22:37:23.821Z,4.87
2022-07-30T22:40:37.915Z,5.55
2022-07-30T22:43:42.325Z,4.15
2022-07-30T22:46:45.061Z,4.78
2022-07-30T22:50:01.712Z,6.30
2022-07-30T22:54:02.896Z,5.40
2022-07-30T22:56:27.751Z,4.05
2022-07-30T23:00:00.315Z,5.10
2022-07-30T23:02:53.305Z,4.62
2022-07-30T23:05:57.132Z,4.90
2022-07-30T23:09:00.852Z,4.50
2022-07-30T23:12:03.934Z,5.40
2022-07-30T23:12:31.441Z,3.80
2022-07-30T23:15:07.593Z,4.85
2022-07-30T23:18:10.481Z,5.32
2022-07-30T23:21:15.017Z,4.80
2022-07-30T23:24:17.968Z,4.57
2022-07-30T23:27:21.233Z,4.05
2022-07-30T23:30:25.119Z,4.32
2022-07-30T23:33:34.725Z,3.95
2022-07-30T23:36:38.026Z,5.10
2022-07-30T23:39:41.016Z,6.05
2022-07-30T23:42:43.552Z,5.28
2022-07-30T23:45:46.493Z,4.15
2022-07-30T23:48:49.017Z,4.95
2022-07-30T23:51:52.084Z,4.20
2022-07-30T23:54:54.784Z,4.47
2022-07-30T23:57:58.571Z,6.20
